createdAt,value
2017-12-28T12:43:55.464Z,7.37
2017-12-28T12:43:55.981Z,7.34
2017-12-28T12:43:56.506Z,7.41
2017-12-28T12:43:57.010Z,7.36
2017-12-28T12:43:57.676Z,7.34
2017-12-28T12:43:58.284Z,7.36
2017-12-28T12:43:58.793Z,7.41
2017-12-28T12:43:59.268Z,7.32
2017-12-28T12:43:59.977Z,7.29
2017-12-28T12:44:00.598Z,7.36
2017-12-28T12:44:01.089Z,7.34
2017-12-28T12:44:01.630Z,7.37
2017-12-28T12:44:01.960Z,7.30
2017-12-28T12:44:02.640Z,7.26
2017-12-28T12:44:03.273Z,7.32
2017-12-28T12:44:03.774Z,7.23
2017-12-28T12:44:04.334Z,7.23
2017-12-28T12:44:04.826Z,7.26
2017-12-28T12:44:05.349Z,7.26
2017-12-28T12:44:05.907Z,7.26
2017-12-28T12:44:06.411Z,7.32
2017-12-28T12:44:06.920Z,7.19
2017-12-28T12:44:07.433Z,7.21
2017-12-28T12:44:07.976Z,7.24
2017-12-28T12:44:08.487Z,7.23
2017-12-28T12:44:09.016Z,7.16
2017-12-28T12:44:09.597Z,7.27
2017-12-28T12:44:10.135Z,7.16
2017-12-28T12:44:10.722Z,7.24
2017-12-28T12:44:11.212Z,7.15
2017-12-28T12:44:11.768Z,7.16
2017-12-28T12:44:12.252Z,7.19
2017-12-28T12:44:12.804Z,7.14
2017-12-28T12:44:13.318Z,7.12
2017-12-28T12:44:13.844Z,7.12
2017-12-28T12:44:14.354Z,7.15
2017-12-28T12:44:14.880Z,7.09
2017-12-28T12:44:15.393Z,7.14
2017-12-28T12:44:15.931Z,7.15
2017-12-28T12:44:16.458Z,7.11
2017-12-28T12:44:16.970Z,7.08
2017-12-28T12:44:17.492Z,7.07
2017-12-28T12:44:18.020Z,7.07
2017-12-28T12:44:18.562Z,7.08
2017-12-28T12:44:19.081Z,7.12
2017-12-28T12:44:19.606Z,7.08
2017-12-28T12:44:20.136Z,7.04
2017-12-28T12:44:20.648Z,7.04
2017-12-28T12:44:21.160Z,7.11
2017-12-28T12:44:21.696Z,7.08
2017-12-28T12:44:22.200Z,7.05
2017-12-28T12:44:22.740Z,7.07
2017-12-28T12:44:23.244Z,7.05
2017-12-28T12:44:23.770Z,7.01
2017-12-28T12:44:24.300Z,7.01
2017-12-28T12:44:24.812Z,7.07
2017-12-28T12:44:25.352Z,7.05
2017-12-28T12:44:25.880Z,7.05
2017-12-28T12:44:26.400Z,6.89
2017-12-28T12:44:26.932Z,6.83
2017-12-28T12:44:27.448Z,6.94
2017-12-28T12:44:27.974Z,6.93
2017-12-28T12:44:28.490Z,6.87
2017-12-28T12:44:29.020Z,6.89
2017-12-28T12:44:29.577Z,6.94
2017-12-28T12:44:30.102Z,6.79
2017-12-28T12:44:30.642Z,6.78
2017-12-28T12:44:31.176Z,6.81
2017-12-28T12:44:31.700Z,6.78
2017-12-28T12:44:32.261Z,6.78
2017-12-28T12:44:32.780Z,6.78
2017-12-28T12:44:33.330Z,6.82
2017-12-28T12:44:33.860Z,6.75
2017-12-28T12:44:34.388Z,6.76
2017-12-28T12:44:34.924Z,6.76
2017-12-28T12:44:35.455Z,6.76
2017-12-28T12:44:35.970Z,6.81
2017-12-28T12:44:36.490Z,6.81
2017-12-28T12:44:37.020Z,6.69
2017-12-28T12:44:37.576Z,6.76
2017-12-28T12:44:38.096Z,6.76
2017-12-28T12:44:38.620Z,6.72
2017-12-28T12:44:39.170Z,6.75
2017-12-28T12:44:39.690Z,6.81
2017-12-28T12:44:40.208Z,6.71
2017-12-28T12:44:40.744Z,6.69
2017-12-28T12:44:41.260Z,6.68
2017-12-28T12:44:41.801Z,6.72
2017-12-28T12:44:42.328Z,6.69
2017-12-28T12:44:42.852Z,6.76
2017-12-28T12:44:43.368Z,6.68
2017-12-28T12:44:43.893Z,6.71
2017-12-28T12:44:44.426Z,6.71
2017-12-28T12:44:44.962Z,6.76
2017-12-28T12:44:45.488Z,6.73
2017-12-28T12:44:46.020Z,6.65
2017-12-28T12:44:46.520Z,6.75
2017-12-28T12:44:47.040Z,6.63
2017-12-28T12:44:47.668Z,6.72
2017-12-28T12:44:48.169Z,6.71
2017-12-28T12:44:48.680Z,6.61
2017-12-28T12:44:49.299Z,6.61
2017-12-28T12:44:49.680Z,6.58
2017-12-28T12:44:50.214Z,6.58
2017-12-28T12:44:50.740Z,6.63
2017-12-28T12:44:51.276Z,6.57
2017-12-28T12:44:51.800Z,6.61
2017-12-28T12:44:52.311Z,6.58
2017-12-28T12:44:52.839Z,6.69
2017-12-28T12:44:53.378Z,6.58
2017-12-28T12:44:53.904Z,6.63
2017-12-28T12:44:54.462Z,6.60
2017-12-28T12:44:54.983Z,6.60
2017-12-28T12:44:55.510Z,6.63
2017-12-28T12:44:56.020Z,6.60
2017-12-28T12:44:56.552Z,6.51
2017-12-28T12:44:57.060Z,6.58
2017-12-28T12:44:57.575Z,6.64
2017-12-28T12:44:58.120Z,6.54
2017-12-28T12:44:58.639Z,6.60
2017-12-28T12:44:59.168Z,6.46
2017-12-28T12:44:59.680Z,6.50
2017-12-28T12:45:00.198Z,6.51
2017-12-28T12:45:00.728Z,6.48
2017-12-28T12:45:01.261Z,6.53
2017-12-28T12:45:01.784Z,6.50
2017-12-28T12:45:02.324Z,6.46
2017-12-28T12:45:02.864Z,6.51
2017-12-28T12:45:03.379Z,6.43
2017-12-28T12:45:03.943Z,6.48
2017-12-28T12:45:04.441Z,6.51
2017-12-28T12:45:04.973Z,6.46
2017-12-28T12:45:05.498Z,6.53
2017-12-28T12:45:06.040Z,6.45
2017-12-28T12:45:06.560Z,6.42
2017-12-28T12:45:07.088Z,6.46
2017-12-28T12:45:07.624Z,6.43
2017-12-28T12:45:08.170Z,6.43
2017-12-28T12:45:08.730Z,6.43
2017-12-28T12:45:09.240Z,6.38
2017-12-28T12:45:09.762Z,6.36
2017-12-28T12:45:10.288Z,6.33
2017-12-28T12:45:10.814Z,6.42
2017-12-28T12:45:11.374Z,6.38
2017-12-28T12:45:11.890Z,6.43
2017-12-28T12:45:12.414Z,6.35
2017-12-28T12:45:12.964Z,6.43
2017-12-28T12:45:13.480Z,6.42
2017-12-28T12:45:14.010Z,6.32
2017-12-28T12:45:14.521Z,6.36
2017-12-28T12:45:15.044Z,6.36
2017-12-28T12:45:15.550Z,6.33
2017-12-28T12:45:16.080Z,6.35
2017-12-28T12:45:16.590Z,6.35
2017-12-28T12:45:17.132Z,6.35
2017-12-28T12:45:17.660Z,6.35
2017-12-28T12:45:18.170Z,6.36
2017-12-28T12:45:18.692Z,6.36
2017-12-28T12:45:19.220Z,6.35
2017-12-28T12:45:19.771Z,6.32
2017-12-28T12:45:20.280Z,6.33
2017-12-28T12:45:20.803Z,6.36
2017-12-28T12:45:21.329Z,6.32
2017-12-28T12:45:21.859Z,6.32
2017-12-28T12:45:22.377Z,6.28
2017-12-28T12:45:22.900Z,6.30
2017-12-28T12:45:23.470Z,6.33
2017-12-28T12:45:24.000Z,6.33
2017-12-28T12:45:24.536Z,6.30
2017-12-28T12:45:25.034Z,6.21
2017-12-28T12:45:25.560Z,6.27
2017-12-28T12:45:26.096Z,6.32
2017-12-28T12:45:26.610Z,6.25
2017-12-28T12:45:27.120Z,6.33
2017-12-28T12:45:27.660Z,6.28
2017-12-28T12:45:28.180Z,6.28
2017-12-28T12:45:28.714Z,6.32
2017-12-28T12:45:29.253Z,6.25
2017-12-28T12:45:29.770Z,6.21
2017-12-28T12:45:30.280Z,6.32
2017-12-28T12:45:30.813Z,6.33
2017-12-28T12:45:31.330Z,6.32
2017-12-28T12:45:31.860Z,6.27
2017-12-28T12:45:32.422Z,6.25
2017-12-28T12:45:32.964Z,6.24
2017-12-28T12:45:33.490Z,6.25
2017-12-28T12:45:34.024Z,6.28
2017-12-28T12:45:34.588Z,6.25
2017-12-28T12:45:35.128Z,6.24
2017-12-28T12:45:35.672Z,6.24
2017-12-28T12:45:36.208Z,6.25
2017-12-28T12:45:36.746Z,6.27
2017-12-28T12:45:37.296Z,6.25
2017-12-28T12:45:37.810Z,6.16
2017-12-28T12:45:38.324Z,6.24
2017-12-28T12:45:38.849Z,6.16
2017-12-28T12:45:39.387Z,6.17
2017-12-28T12:45:39.932Z,6.25
2017-12-28T12:45:40.500Z,6.25
2017-12-28T12:45:41.034Z,6.19
2017-12-28T12:45:41.574Z,6.20
2017-12-28T12:45:42.080Z,6.17
2017-12-28T12:45:42.624Z,6.11
2017-12-28T12:45:43.156Z,6.13
2017-12-28T12:45:43.682Z,6.24
2017-12-28T12:45:44.201Z,6.08
2017-12-28T12:45:44.734Z,6.13
2017-12-28T12:45:45.253Z,6.13
2017-12-28T12:45:45.800Z,6.16
2017-12-28T12:45:46.336Z,6.17
2017-12-28T12:45:46.810Z,6.16
2017-12-28T12:45:47.334Z,6.08
2017-12-28T12:45:47.882Z,6.14
2017-12-28T12:45:48.416Z,6.14
2017-12-28T12:45:48.930Z,6.16
2017-12-28T12:45:49.447Z,6.11
2017-12-28T12:45:49.984Z,6.19
2017-12-28T12:45:50.531Z,6.10
2017-12-28T12:45:51.040Z,6.08
2017-12-28T12:45:51.560Z,6.17
2017-12-28T12:45:52.088Z,6.10
2017-12-28T12:45:52.610Z,6.14
2017-12-28T12:45:53.128Z,6.10
2017-12-28T12:45:53.654Z,6.05
2017-12-28T12:45:54.171Z,6.08
2017-12-28T12:45:54.724Z,6.03
2017-12-28T12:45:55.282Z,6.08
2017-12-28T12:45:55.814Z,6.03
2017-12-28T12:45:56.341Z,6.14
2017-12-28T12:45:56.875Z,6.06
2017-12-28T12:45:57.416Z,6.10
2017-12-28T12:45:57.942Z,6.10
2017-12-28T12:45:58.462Z,6.08
2017-12-28T12:45:58.954Z,6.05
2017-12-28T12:45:59.490Z,6.06
2017-12-28T12:46:00.018Z,6.05
2017-12-28T12:46:00.520Z,6.08
2017-12-28T12:46:01.045Z,6.10
2017-12-28T12:46:01.561Z,6.10
2017-12-28T12:46:02.088Z,6.06
2017-12-28T12:46:02.616Z,6.06
2017-12-28T12:46:03.254Z,6.08
2017-12-28T12:46:03.780Z,6.10
2017-12-28T12:46:04.320Z,6.03
2017-12-28T12:46:04.844Z,5.95
2017-12-28T12:46:05.364Z,6.05
2017-12-28T12:46:05.910Z,6.03
2017-12-28T12:46:06.440Z,6.03
2017-12-28T12:46:06.970Z,5.98
2017-12-28T12:46:07.496Z,5.98
2017-12-28T12:46:08.020Z,5.98
2017-12-28T12:46:08.570Z,5.98
2017-12-28T12:46:09.110Z,5.95
2017-12-28T12:46:09.641Z,5.96
2017-12-28T12:46:10.170Z,5.95
2017-12-28T12:46:10.691Z,5.93
2017-12-28T12:46:11.221Z,5.95
2017-12-28T12:46:11.754Z,5.95
2017-12-28T12:46:12.274Z,5.95
2017-12-28T12:46:12.802Z,5.99
2017-12-28T12:46:13.331Z,5.96
2017-12-28T12:46:13.889Z,5.98
2017-12-28T12:46:14.365Z,5.96
2017-12-28T12:46:14.889Z,5.99
2017-12-28T12:46:15.460Z,5.96
2017-12-28T12:46:15.948Z,6.03
2017-12-28T12:46:16.425Z,5.92
2017-12-28T12:46:17.009Z,6.03
2017-12-28T12:46:17.490Z,5.90
2017-12-28T12:46:18.020Z,5.95
2017-12-28T12:46:18.532Z,5.90
2017-12-28T12:46:19.063Z,5.90
2017-12-28T12:46:19.584Z,5.88
2017-12-28T12:46:20.130Z,5.92
2017-12-28T12:46:20.664Z,5.93
2017-12-28T12:46:21.209Z,5.93
2017-12-28T12:46:21.722Z,5.87
2017-12-28T12:46:22.240Z,5.90
2017-12-28T12:46:22.784Z,5.93
2017-12-28T12:46:23.300Z,5.90
2017-12-28T12:46:23.844Z,5.81
2017-12-28T12:46:24.368Z,5.80
2017-12-28T12:46:24.900Z,5.87
2017-12-28T12:46:25.450Z,5.85
2017-12-28T12:46:25.980Z,5.75
2017-12-28T12:46:26.536Z,5.87
2017-12-28T12:46:27.045Z,5.90
2017-12-28T12:46:27.568Z,5.90
2017-12-28T12:46:28.081Z,5.90
2017-12-28T12:46:28.628Z,5.88
2017-12-28T12:46:29.162Z,5.81
2017-12-28T12:46:29.700Z,5.87
2017-12-28T12:46:30.246Z,5.84
2017-12-28T12:46:30.760Z,5.87
2017-12-28T12:46:31.288Z,5.85
2017-12-28T12:46:31.784Z,5.84
2017-12-28T12:46:32.336Z,5.81
2017-12-28T12:46:32.860Z,5.84
2017-12-28T12:46:33.378Z,5.88
2017-12-28T12:46:33.908Z,5.87
2017-12-28T12:46:34.424Z,5.83
2017-12-28T12:46:34.950Z,5.84
2017-12-28T12:46:35.570Z,5.85
2017-12-28T12:46:36.200Z,5.80
2017-12-28T12:46:36.860Z,5.84
2017-12-28T12:46:37.378Z,5.81
2017-12-28T12:46:37.924Z,5.80
2017-12-28T12:46:38.444Z,5.77
2017-12-28T12:46:38.970Z,5.77
2017-12-28T12:46:39.480Z,5.78
2017-12-28T12:46:40.011Z,5.84
2017-12-28T12:46:40.524Z,5.75
2017-12-28T12:46:41.060Z,5.84
2017-12-28T12:46:41.600Z,5.74
2017-12-28T12:46:42.128Z,5.78
2017-12-28T12:46:42.654Z,5.77
2017-12-28T12:46:43.169Z,5.78
2017-12-28T12:46:43.700Z,5.78
2017-12-28T12:46:44.262Z,5.81
2017-12-28T12:46:44.822Z,5.80
2017-12-28T12:46:45.350Z,5.75
2017-12-28T12:46:45.880Z,5.75
2017-12-28T12:46:46.410Z,5.73
2017-12-28T12:46:46.940Z,5.75
2017-12-28T12:46:47.462Z,5.69
2017-12-28T12:46:47.994Z,5.74
2017-12-28T12:46:48.528Z,5.75
2017-12-28T12:46:49.060Z,5.75
2017-12-28T12:46:49.604Z,5.73
2017-12-28T12:46:50.136Z,5.67
2017-12-28T12:46:50.662Z,5.73
2017-12-28T12:46:51.202Z,5.74
2017-12-28T12:46:51.720Z,5.81
2017-12-28T12:46:52.248Z,5.80
2017-12-28T12:46:52.769Z,5.78
2017-12-28T12:46:53.306Z,5.70
2017-12-28T12:46:53.840Z,5.66
2017-12-28T12:46:54.360Z,5.74
2017-12-28T12:46:54.905Z,5.73
2017-12-28T12:46:55.428Z,5.74
2017-12-28T12:46:55.990Z,5.69
2017-12-28T12:46:56.524Z,5.66
2017-12-28T12:46:57.052Z,5.70
2017-12-28T12:46:57.570Z,5.66
2017-12-28T12:46:58.090Z,5.65
2017-12-28T12:46:58.620Z,5.69
2017-12-28T12:46:59.148Z,5.60
2017-12-28T12:46:59.680Z,5.69
2017-12-28T12:47:00.201Z,5.69
2017-12-28T12:47:00.760Z,5.69
2017-12-28T12:47:01.288Z,5.59
2017-12-28T12:47:01.820Z,5.60
2017-12-28T12:47:02.346Z,5.62
2017-12-28T12:47:02.989Z,5.69
2017-12-28T12:47:03.522Z,5.69
2017-12-28T12:47:04.052Z,5.59
2017-12-28T12:47:04.580Z,5.65
2017-12-28T12:47:05.117Z,5.66
2017-12-28T12:47:05.590Z,5.65
2017-12-28T12:47:06.131Z,5.62
2017-12-28T12:47:06.690Z,5.69
2017-12-28T12:47:07.216Z,5.69
2017-12-28T12:47:07.740Z,5.66
2017-12-28T12:47:08.301Z,5.66
2017-12-28T12:47:08.820Z,5.69
2017-12-28T12:47:09.387Z,5.66
2017-12-28T12:47:09.922Z,5.58
2017-12-28T12:47:10.450Z,5.62
2017-12-28T12:47:11.000Z,5.62
2017-12-28T12:47:11.543Z,5.60
2017-12-28T12:47:12.056Z,5.65
2017-12-28T12:47:12.604Z,5.63
2017-12-28T12:47:13.088Z,5.69
2017-12-28T12:47:13.622Z,5.69
2017-12-28T12:47:14.150Z,5.73
2017-12-28T12:47:14.681Z,5.65
2017-12-28T12:47:15.211Z,5.62
2017-12-28T12:47:15.745Z,5.65
2017-12-28T12:47:16.260Z,5.73
2017-12-28T12:47:16.804Z,5.62
2017-12-28T12:47:17.330Z,5.63
2017-12-28T12:47:17.896Z,5.59
2017-12-28T12:47:18.430Z,5.58
2017-12-28T12:47:18.950Z,5.63
2017-12-28T12:47:19.480Z,5.65
2017-12-28T12:47:20.012Z,5.63
2017-12-28T12:47:20.542Z,5.62
2017-12-28T12:47:21.074Z,5.63
2017-12-28T12:47:21.600Z,5.59
2017-12-28T12:47:22.120Z,5.59
2017-12-28T12:47:22.650Z,5.62
2017-12-28T12:47:23.180Z,5.62
2017-12-28T12:47:23.709Z,5.60
2017-12-28T12:47:24.256Z,5.60
2017-12-28T12:47:24.770Z,5.62
2017-12-28T12:47:25.288Z,5.63
2017-12-28T12:47:25.824Z,5.62
2017-12-28T12:47:26.346Z,5.63
2017-12-28T12:47:26.880Z,5.66
2017-12-28T12:47:27.400Z,5.60
2017-12-28T12:47:27.942Z,5.52
2017-12-28T12:47:28.501Z,5.63
2017-12-28T12:47:29.042Z,5.65
2017-12-28T12:47:29.569Z,5.59
2017-12-28T12:47:30.081Z,5.60
2017-12-28T12:47:30.590Z,5.62
2017-12-28T12:47:31.114Z,5.59
2017-12-28T12:47:31.640Z,5.60
2017-12-28T12:47:32.161Z,5.60
2017-12-28T12:47:32.700Z,5.56
2017-12-28T12:47:33.250Z,5.60
2017-12-28T12:47:33.804Z,5.58
2017-12-28T12:47:34.318Z,5.52
2017-12-28T12:47:34.844Z,5.60
2017-12-28T12:47:35.380Z,5.52
2017-12-28T12:47:35.910Z,5.52
2017-12-28T12:47:36.444Z,5.63
2017-12-28T12:47:37.018Z,5.59
2017-12-28T12:47:37.554Z,5.59
2017-12-28T12:47:37.974Z,5.52
2017-12-28T12:47:38.513Z,5.62
2017-12-28T12:47:39.064Z,5.55
2017-12-28T12:47:39.604Z,5.58
2017-12-28T12:47:40.136Z,5.58
2017-12-28T12:47:40.665Z,5.62
2017-12-28T12:47:41.190Z,5.59
2017-12-28T12:47:41.720Z,5.55
2017-12-28T12:47:42.259Z,5.56
2017-12-28T12:47:42.783Z,5.63
2017-12-28T12:47:43.316Z,5.60
2017-12-28T12:47:43.842Z,5.65
2017-12-28T12:47:44.364Z,5.69
2017-12-28T12:47:44.903Z,5.65
2017-12-28T12:47:45.424Z,5.55
2017-12-28T12:47:45.954Z,5.59
2017-12-28T12:47:46.480Z,5.58
2017-12-28T12:47:47.051Z,5.62
2017-12-28T12:47:47.590Z,5.58
2017-12-28T12:47:48.120Z,5.55
2017-12-28T12:47:48.652Z,5.58
2017-12-28T12:47:49.209Z,5.62
2017-12-28T12:47:49.710Z,5.66
2017-12-28T12:47:50.240Z,5.60
2017-12-28T12:47:50.788Z,5.65
2017-12-28T12:47:51.364Z,5.67
2017-12-28T12:47:51.884Z,5.55
2017-12-28T12:47:52.416Z,5.56
2017-12-28T12:47:52.940Z,5.60
2017-12-28T12:47:53.480Z,5.56
2017-12-28T12:47:53.994Z,5.51
2017-12-28T12:47:54.528Z,5.52
2017-12-28T12:47:55.060Z,5.45
2017-12-28T12:47:55.604Z,5.52
2017-12-28T12:47:56.091Z,5.51
2017-12-28T12:47:56.644Z,5.48
2017-12-28T12:47:57.180Z,5.56
2017-12-28T12:47:57.700Z,5.49
2017-12-28T12:47:58.256Z,5.45
2017-12-28T12:47:58.780Z,5.52
2017-12-28T12:47:59.304Z,5.55
2017-12-28T12:47:59.833Z,5.48
2017-12-28T12:48:00.358Z,5.45
2017-12-28T12:48:00.860Z,5.56
2017-12-28T12:48:01.360Z,5.55
2017-12-28T12:48:01.920Z,5.48
2017-12-28T12:48:02.456Z,5.44
2017-12-28T12:48:02.986Z,5.48
2017-12-28T12:48:03.500Z,5.35
2017-12-28T12:48:04.050Z,5.32
2017-12-28T12:48:04.593Z,5.26
2017-12-28T12:48:05.122Z,5.37
2017-12-28T12:48:05.664Z,5.45
2017-12-28T12:48:06.196Z,5.37
2017-12-28T12:48:06.710Z,5.32
2017-12-28T12:48:07.236Z,5.35
2017-12-28T12:48:07.760Z,5.37
2017-12-28T12:48:08.300Z,5.37
2017-12-28T12:48:08.830Z,5.44
2017-12-28T12:48:09.360Z,5.41
2017-12-28T12:48:09.889Z,5.33
2017-12-28T12:48:10.400Z,5.33
2017-12-28T12:48:10.937Z,5.45
2017-12-28T12:48:11.500Z,5.45
2017-12-28T12:48:12.055Z,5.32
2017-12-28T12:48:12.562Z,5.48
2017-12-28T12:48:13.108Z,5.32
2017-12-28T12:48:13.640Z,5.32
2017-12-28T12:48:14.170Z,5.29
2017-12-28T12:48:14.690Z,5.32
2017-12-28T12:48:15.200Z,5.33
2017-12-28T12:48:15.742Z,5.32
2017-12-28T12:48:16.250Z,5.41
2017-12-28T12:48:16.795Z,5.38
2017-12-28T12:48:17.336Z,5.30
2017-12-28T12:48:17.859Z,5.29
2017-12-28T12:48:18.423Z,5.35
2017-12-28T12:48:18.961Z,5.42
2017-12-28T12:48:19.499Z,5.29
2017-12-28T12:48:20.041Z,5.33
2017-12-28T12:48:20.560Z,5.26
2017-12-28T12:48:21.080Z,5.35
2017-12-28T12:48:21.620Z,5.38
2017-12-28T12:48:22.131Z,5.26
2017-12-28T12:48:22.684Z,5.33
2017-12-28T12:48:23.220Z,5.40
2017-12-28T12:48:23.773Z,5.40
2017-12-28T12:48:24.302Z,5.35
2017-12-28T12:48:24.844Z,5.37
2017-12-28T12:48:25.370Z,5.37
2017-12-28T12:48:25.896Z,5.35
2017-12-28T12:48:26.428Z,5.38
2017-12-28T12:48:26.934Z,5.40
2017-12-28T12:48:27.492Z,5.44
2017-12-28T12:48:28.036Z,5.42
2017-12-28T12:48:28.560Z,5.47
2017-12-28T12:48:29.098Z,5.35
2017-12-28T12:48:29.626Z,5.32
2017-12-28T12:48:30.176Z,5.30
2017-12-28T12:48:30.722Z,5.33
2017-12-28T12:48:31.240Z,5.42
2017-12-28T12:48:31.790Z,5.32
2017-12-28T12:48:32.346Z,5.38
2017-12-28T12:48:32.882Z,5.33
2017-12-28T12:48:33.412Z,5.35
2017-12-28T12:48:33.940Z,5.30
2017-12-28T12:48:34.468Z,5.37
2017-12-28T12:48:35.012Z,5.37
2017-12-28T12:48:35.540Z,5.33
2017-12-28T12:48:36.066Z,5.42
2017-12-28T12:48:36.601Z,5.30
2017-12-28T12:48:37.132Z,5.32
2017-12-28T12:48:37.651Z,5.35
2017-12-28T12:48:38.180Z,5.35
2017-12-28T12:48:38.702Z,5.30
2017-12-28T12:48:39.250Z,5.35
2017-12-28T12:48:39.774Z,5.33
2017-12-28T12:48:40.310Z,5.33
2017-12-28T12:48:40.830Z,5.37
2017-12-28T12:48:41.391Z,5.35
2017-12-28T12:48:41.921Z,5.33
2017-12-28T12:48:42.464Z,5.30
2017-12-28T12:48:42.982Z,5.35
2017-12-28T12:48:43.512Z,5.32
2017-12-28T12:48:44.035Z,5.29
2017-12-28T12:48:44.560Z,5.30
2017-12-28T12:48:45.070Z,5.35
2017-12-28T12:48:45.604Z,5.29
2017-12-28T12:48:46.128Z,5.35
2017-12-28T12:48:46.635Z,5.32
2017-12-28T12:48:47.168Z,5.26
2017-12-28T12:48:47.700Z,5.30
2017-12-28T12:48:48.210Z,5.27
2017-12-28T12:48:48.734Z,5.26
2017-12-28T12:48:49.251Z,5.24
2017-12-28T12:48:49.810Z,5.26
2017-12-28T12:48:50.329Z,5.27
2017-12-28T12:48:50.840Z,5.24
2017-12-28T12:48:51.350Z,5.30
2017-12-28T12:48:51.888Z,5.26
2017-12-28T12:48:52.410Z,5.30
2017-12-28T12:48:52.920Z,5.30
2017-12-28T12:48:53.456Z,5.32
2017-12-28T12:48:53.988Z,5.29
2017-12-28T12:48:54.510Z,5.33
2017-12-28T12:48:55.014Z,5.33
2017-12-28T12:48:55.574Z,5.33
2017-12-28T12:48:56.080Z,5.33
2017-12-28T12:48:56.610Z,5.33
2017-12-28T12:48:57.120Z,5.30
2017-12-28T12:48:57.660Z,5.32
2017-12-28T12:48:58.178Z,5.37
2017-12-28T12:48:58.722Z,5.32
2017-12-28T12:48:59.244Z,5.29
2017-12-28T12:48:59.778Z,5.29
2017-12-28T12:49:00.300Z,5.33
2017-12-28T12:49:00.840Z,5.35
2017-12-28T12:49:01.381Z,5.29
2017-12-28T12:49:01.902Z,5.30
2017-12-28T12:49:02.428Z,5.33
2017-12-28T12:49:02.957Z,5.35
2017-12-28T12:49:03.488Z,5.35
2017-12-28T12:49:04.022Z,5.32
2017-12-28T12:49:04.562Z,5.32
2017-12-28T12:49:05.080Z,5.27
2017-12-28T12:49:05.610Z,5.26
2017-12-28T12:49:06.156Z,5.24
2017-12-28T12:49:06.680Z,5.30
2017-12-28T12:49:07.208Z,5.26
2017-12-28T12:49:07.728Z,5.23
2017-12-28T12:49:08.250Z,5.30
2017-12-28T12:49:08.802Z,5.27
2017-12-28T12:49:09.320Z,5.30
2017-12-28T12:49:09.860Z,5.29
2017-12-28T12:49:10.370Z,5.30
2017-12-28T12:49:10.900Z,5.30
2017-12-28T12:49:11.420Z,5.30
2017-12-28T12:49:11.964Z,5.24
2017-12-28T12:49:12.480Z,5.30
2017-12-28T12:49:13.010Z,5.27
2017-12-28T12:49:13.561Z,5.33
2017-12-28T12:49:14.088Z,5.37
2017-12-28T12:49:14.600Z,5.33
2017-12-28T12:49:15.128Z,5.30
2017-12-28T12:49:15.660Z,5.30
2017-12-28T12:49:16.170Z,5.27
2017-12-28T12:49:16.720Z,5.29
2017-12-28T12:49:17.240Z,5.27
2017-12-28T12:49:17.773Z,5.30
2017-12-28T12:49:18.290Z,5.30
2017-12-28T12:49:18.820Z,5.30
2017-12-28T12:49:19.330Z,5.32
2017-12-28T12:49:19.862Z,5.32
2017-12-28T12:49:20.401Z,5.24
2017-12-28T12:49:20.964Z,5.29
2017-12-28T12:49:21.502Z,5.26
2017-12-28T12:49:22.020Z,5.30
2017-12-28T12:49:22.554Z,5.30
2017-12-28T12:49:23.090Z,5.27
2017-12-28T12:49:23.614Z,5.27
2017-12-28T12:49:24.120Z,5.29
2017-12-28T12:49:24.707Z,5.30
2017-12-28T12:49:25.208Z,5.33
2017-12-28T12:49:25.740Z,5.35
2017-12-28T12:49:26.260Z,5.24
2017-12-28T12:49:26.805Z,5.30
2017-12-28T12:49:27.314Z,5.30
2017-12-28T12:49:27.836Z,5.27
2017-12-28T12:49:28.361Z,5.29
2017-12-28T12:49:28.899Z,5.30
2017-12-28T12:49:29.399Z,5.33
2017-12-28T12:49:29.930Z,5.26
2017-12-28T12:49:30.440Z,5.24
2017-12-28T12:49:30.974Z,5.30
2017-12-28T12:49:31.522Z,5.32
2017-12-28T12:49:32.040Z,5.35
2017-12-28T12:49:32.574Z,5.29
2017-12-28T12:49:33.092Z,5.33
2017-12-28T12:49:33.620Z,5.27
2017-12-28T12:49:34.168Z,5.29
2017-12-28T12:49:34.712Z,5.33
2017-12-28T12:49:35.240Z,5.30
2017-12-28T12:49:35.788Z,5.30
2017-12-28T12:49:36.310Z,5.26
2017-12-28T12:49:36.840Z,5.22
2017-12-28T12:49:37.360Z,5.24
2017-12-28T12:49:37.889Z,5.37
2017-12-28T12:49:38.402Z,5.27
2017-12-28T12:49:38.934Z,5.30
2017-12-28T12:49:39.491Z,5.27
2017-12-28T12:49:40.008Z,5.24
2017-12-28T12:49:40.541Z,5.30
2017-12-28T12:49:41.066Z,5.24
2017-12-28T12:49:41.602Z,5.24
2017-12-28T12:49:42.120Z,5.26
2017-12-28T12:49:42.649Z,5.29
2017-12-28T12:49:43.161Z,5.24
2017-12-28T12:49:43.703Z,5.24
2017-12-28T12:49:44.270Z,5.27
2017-12-28T12:49:44.800Z,5.17
2017-12-28T12:49:45.323Z,5.27
2017-12-28T12:49:45.851Z,5.32
2017-12-28T12:49:46.360Z,5.26
2017-12-28T12:49:46.900Z,5.24
2017-12-28T12:49:47.430Z,5.14
2017-12-28T12:49:48.003Z,5.22
2017-12-28T12:49:48.494Z,5.24
2017-12-28T12:49:48.999Z,5.24
2017-12-28T12:49:49.530Z,5.23
2017-12-28T12:49:50.052Z,5.27
2017-12-28T12:49:50.580Z,5.29
2017-12-28T12:49:51.093Z,5.24
2017-12-28T12:49:51.624Z,5.23
2017-12-28T12:49:52.150Z,5.20
2017-12-28T12:49:52.680Z,5.22
2017-12-28T12:49:53.206Z,5.30
2017-12-28T12:49:53.721Z,5.29
2017-12-28T12:49:54.231Z,5.22
2017-12-28T12:49:54.764Z,5.23
2017-12-28T12:49:55.292Z,5.23
2017-12-28T12:49:55.844Z,5.14
2017-12-28T12:49:56.360Z,5.20
2017-12-28T12:49:56.894Z,5.11
2017-12-28T12:49:57.410Z,5.23
2017-12-28T12:49:57.942Z,5.24
2017-12-28T12:49:58.484Z,5.23
2017-12-28T12:49:59.000Z,5.22
2017-12-28T12:49:59.535Z,5.24
2017-12-28T12:50:00.044Z,5.22
2017-12-28T12:50:00.581Z,5.27
2017-12-28T12:50:01.110Z,5.20
2017-12-28T12:50:01.631Z,5.24
2017-12-28T12:50:02.164Z,5.15
2017-12-28T12:50:02.700Z,5.22
2017-12-28T12:50:03.232Z,5.19
2017-12-28T12:50:03.760Z,5.26
2017-12-28T12:50:04.288Z,5.20
2017-12-28T12:50:04.824Z,5.15
2017-12-28T12:50:05.348Z,5.24
2017-12-28T12:50:05.874Z,5.24
2017-12-28T12:50:06.400Z,5.15
2017-12-28T12:50:06.949Z,5.15
2017-12-28T12:50:07.480Z,5.19
2017-12-28T12:50:08.001Z,5.15
2017-12-28T12:50:08.530Z,5.17
2017-12-28T12:50:09.041Z,5.15
2017-12-28T12:50:09.564Z,5.20
2017-12-28T12:50:10.080Z,5.20
2017-12-28T12:50:10.614Z,5.11
2017-12-28T12:50:11.120Z,5.22
2017-12-28T12:50:11.654Z,5.15
2017-12-28T12:50:12.171Z,5.22
2017-12-28T12:50:12.710Z,5.14
2017-12-28T12:50:13.220Z,5.12
2017-12-28T12:50:13.750Z,5.22
2017-12-28T12:50:14.296Z,5.20
2017-12-28T12:50:14.820Z,5.22
2017-12-28T12:50:15.376Z,5.17
2017-12-28T12:50:15.888Z,5.17
2017-12-28T12:50:16.390Z,5.14
2017-12-28T12:50:16.920Z,5.22
2017-12-28T12:50:17.458Z,5.17
2017-12-28T12:50:17.970Z,5.17
2017-12-28T12:50:18.524Z,5.22
2017-12-28T12:50:19.040Z,5.12
2017-12-28T12:50:19.580Z,5.12
2017-12-28T12:50:20.090Z,5.12
2017-12-28T12:50:20.619Z,5.17
2017-12-28T12:50:21.148Z,5.08
2017-12-28T12:50:21.683Z,5.12
2017-12-28T12:50:22.190Z,5.19
2017-12-28T12:50:22.724Z,5.05
2017-12-28T12:50:23.250Z,5.17
2017-12-28T12:50:23.779Z,5.19
2017-12-28T12:50:24.300Z,5.09
2017-12-28T12:50:24.829Z,5.15
2017-12-28T12:50:25.360Z,5.11
2017-12-28T12:50:25.910Z,5.12
2017-12-28T12:50:26.441Z,5.06
2017-12-28T12:50:26.960Z,5.14
2017-12-28T12:50:27.490Z,5.17
2017-12-28T12:50:28.010Z,5.09
2017-12-28T12:50:28.540Z,5.17
2017-12-28T12:50:29.068Z,5.14
2017-12-28T12:50:29.603Z,5.06
2017-12-28T12:50:30.128Z,5.08
2017-12-28T12:50:30.665Z,4.99
2017-12-28T12:50:31.160Z,5.15
2017-12-28T12:50:31.693Z,5.08
2017-12-28T12:50:32.210Z,5.12
2017-12-28T12:50:32.760Z,5.12
2017-12-28T12:50:33.278Z,5.11
2017-12-28T12:50:33.804Z,5.15
2017-12-28T12:50:34.320Z,5.08
2017-12-28T12:50:34.849Z,5.09
2017-12-28T12:50:35.370Z,5.15
2017-12-28T12:50:35.912Z,5.14
2017-12-28T12:50:36.440Z,5.06
2017-12-28T12:50:36.976Z,5.05
2017-12-28T12:50:37.480Z,5.09
2017-12-28T12:50:38.008Z,5.11
2017-12-28T12:50:38.523Z,5.14
2017-12-28T12:50:39.040Z,5.17
2017-12-28T12:50:39.574Z,5.11
2017-12-28T12:50:40.080Z,5.11
2017-12-28T12:50:40.610Z,5.08
2017-12-28T12:50:41.136Z,5.11
2017-12-28T12:50:41.658Z,5.14
2017-12-28T12:50:42.186Z,5.05
2017-12-28T12:50:42.708Z,5.14
2017-12-28T12:50:43.236Z,5.14
2017-12-28T12:50:43.750Z,5.08
2017-12-28T12:50:44.261Z,5.11
2017-12-28T12:50:44.804Z,5.11
2017-12-28T12:50:45.342Z,5.08
2017-12-28T12:50:45.890Z,5.06
2017-12-28T12:50:46.410Z,5.14
2017-12-28T12:50:46.946Z,5.08
2017-12-28T12:50:47.475Z,5.12
2017-12-28T12:50:47.990Z,5.06
2017-12-28T12:50:48.520Z,5.04
2017-12-28T12:50:49.048Z,5.09
2017-12-28T12:50:49.520Z,5.04
2017-12-28T12:50:50.030Z,5.04
2017-12-28T12:50:50.560Z,5.08
2017-12-28T12:50:51.080Z,5.08
2017-12-28T12:50:51.605Z,5.04
2017-12-28T12:50:52.120Z,5.04
2017-12-28T12:50:52.644Z,5.11
2017-12-28T12:50:53.176Z,5.08
2017-12-28T12:50:53.698Z,5.09
2017-12-28T12:50:54.210Z,5.09
2017-12-28T12:50:54.764Z,5.05
2017-12-28T12:50:55.297Z,5.05
2017-12-28T12:50:55.819Z,5.05
2017-12-28T12:50:56.348Z,5.06
2017-12-28T12:50:56.897Z,5.12
2017-12-28T12:50:57.410Z,5.04
2017-12-28T12:50:57.946Z,5.01
2017-12-28T12:50:58.480Z,5.08